sensor_id;sensor_type;location;lat;lon;timestamp;P1;durP1;ratioP1;P2;durP2;ratioP2
34072;SDS011;20346;52.702;16.886;2023-06-26T00:01:47;7.80;;;6.70;;
34072;SDS011;20346;52.702;16.886;2023-06-26T00:04:33;7.40;;;6.30;;
34072;SDS011;20346;52.702;16.886;2023-06-26T00:07:21;7.10;;;6.30;;
34072;SDS011;20346;52.702;16.886;2023-06-26T00:10:07;6.50;;;5.90;;
34072;SDS011;20346;52.702;16.886;2023-06-26T00:12:54;6.20;;;5.30;;
34072;SDS011;20346;52.702;16.886;2023-06-26T00:15:40;5.90;;;5.40;;
34072;SDS011;20346;52.702;16.886;2023-06-26T00:18:26;5.40;;;5.00;;
34072;SDS011;20346;52.702;16.886;2023-06-26T00:21:12;6.80;;;5.80;;
34072;SDS011;20346;52.702;16.886;2023-06-26T00:23:58;6.90;;;6.20;;
34072;SDS011;20346;52.702;16.886;2023-06-26T00:26:47;6.60;;;6.10;;
34072;SDS011;20346;52.702;16.886;2023-06-26T00:29:34;6.30;;;5.70;;
34072;SDS011;20346;52.702;16.886;2023-06-26T00:32:21;6.40;;;5.80;;
34072;SDS011;20346;52.702;16.886;2023-06-26T00:35:07;5.80;;;5.40;;
34072;SDS011;20346;52.702;16.886;2023-06-26T00:37:53;5.40;;;5.00;;
34072;SDS011;20346;52.702;16.886;2023-06-26T00:40:39;6.50;;;6.00;;
34072;SDS011;20346;52.702;16.886;2023-06-26T00:43:25;6.40;;;5.80;;
34072;SDS011;20346;52.702;16.886;2023-06-26T00:46:12;10.20;;;5.00;;
34072;SDS011;20346;52.702;16.886;2023-06-26T00:49:00;5.80;;;5.40;;
34072;SDS011;20346;52.702;16.886;2023-06-26T00:51:49;7.10;;;5.60;;
34072;SDS011;20346;52.702;16.886;2023-06-26T00:57:21;6.10;;;5.60;;
34072;SDS011;20346;52.702;16.886;2023-06-26T01:00:08;6.80;;;5.40;;
34072;SDS011;20346;52.702;16.886;2023-06-26T01:02:55;7.70;;;7.00;;
34072;SDS011;20346;52.702;16.886;2023-06-26T01:05:45;6.80;;;6.20;;
34072;SDS011;20346;52.702;16.886;2023-06-26T01:08:35;6.00;;;5.50;;
34072;SDS011;20346;52.702;16.886;2023-06-26T01:11:21;6.50;;;5.90;;
34072;SDS011;20346;52.702;16.886;2023-06-26T01:14:07;6.60;;;6.10;;
34072;SDS011;20346;52.702;16.886;2023-06-26T01:16:53;6.40;;;5.80;;
34072;SDS011;20346;52.702;16.886;2023-06-26T01:19:43;7.00;;;5.90;;
34072;SDS011;20346;52.702;16.886;2023-06-26T01:28:29;5.70;;;5.20;;
34072;SDS011;20346;52.702;16.886;2023-06-26T01:31:17;7.40;;;5.00;;
34072;SDS011;20346;52.702;16.886;2023-06-26T01:34:05;7.40;;;5.50;;
34072;SDS011;20346;52.702;16.886;2023-06-26T01:36:52;6.40;;;5.40;;
34072;SDS011;20346;52.702;16.886;2023-06-26T01:39:38;7.20;;;6.20;;
34072;SDS011;20346;52.702;16.886;2023-06-26T01:42:24;6.60;;;6.10;;
34072;SDS011;20346;52.702;16.886;2023-06-26T01:45:12;5.60;;;5.20;;
34072;SDS011;20346;52.702;16.886;2023-06-26T01:48:01;6.70;;;5.80;;
34072;SDS011;20346;52.702;16.886;2023-06-26T01:50:50;5.50;;;5.10;;
34072;SDS011;20346;52.702;16.886;2023-06-26T01:53:40;5.80;;;4.70;;
34072;SDS011;20346;52.702;16.886;2023-06-26T01:56:29;6.20;;;5.70;;
34072;SDS011;20346;52.702;16.886;2023-06-26T01:59:17;6.00;;;5.50;;
34072;SDS011;20346;52.702;16.886;2023-06-26T02:02:06;7.40;;;6.50;;
34072;SDS011;20346;52.702;16.886;2023-06-26T02:04:53;6.50;;;5.90;;
34072;SDS011;20346;52.702;16.886;2023-06-26T02:07:39;6.20;;;5.70;;
34072;SDS011;20346;52.702;16.886;2023-06-26T02:10:25;6.30;;;5.70;;
34072;SDS011;20346;52.702;16.886;2023-06-26T02:13:11;6.60;;;6.10;;
34072;SDS011;20346;52.702;16.886;2023-06-26T02:15:57;5.00;;;4.50;;
34072;SDS011;20346;52.702;16.886;2023-06-26T02:18:43;5.60;;;5.10;;
34072;SDS011;20346;52.702;16.886;2023-06-26T02:21:29;7.30;;;5.30;;
34072;SDS011;20346;52.702;16.886;2023-06-26T02:24:15;6.90;;;5.50;;
34072;SDS011;20346;52.702;16.886;2023-06-26T02:27:01;7.10;;;6.50;;
34072;SDS011;20346;52.702;16.886;2023-06-26T02:29:48;7.40;;;6.30;;
34072;SDS011;20346;52.702;16.886;2023-06-26T02:32:34;7.20;;;6.70;;
34072;SDS011;20346;52.702;16.886;2023-06-26T02:35:20;8.30;;;6.20;;
34072;SDS011;20346;52.702;16.886;2023-06-26T02:38:06;7.00;;;6.30;;
34072;SDS011;20346;52.702;16.886;2023-06-26T02:40:52;7.10;;;6.40;;
34072;SDS011;20346;52.702;16.886;2023-06-26T02:43:38;7.30;;;6.60;;
34072;SDS011;20346;52.702;16.886;2023-06-26T02:46:25;6.40;;;5.90;;
34072;SDS011;20346;52.702;16.886;2023-06-26T02:49:11;6.80;;;6.30;;
34072;SDS011;20346;52.702;16.886;2023-06-26T02:51:57;7.40;;;6.70;;
34072;SDS011;20346;52.702;16.886;2023-06-26T02:54:43;7.00;;;6.30;;
34072;SDS011;20346;52.702;16.886;2023-06-26T02:57:29;11.60;;;7.00;;
34072;SDS011;20346;52.702;16.886;2023-06-26T03:00:15;7.60;;;6.30;;
34072;SDS011;20346;52.702;16.886;2023-06-26T03:03:01;7.30;;;6.70;;
34072;SDS011;20346;52.702;16.886;2023-06-26T03:05:49;6.10;;;5.60;;
34072;SDS011;20346;52.702;16.886;2023-06-26T03:08:36;6.10;;;5.60;;
34072;SDS011;20346;52.702;16.886;2023-06-26T03:11:23;6.40;;;5.10;;
34072;SDS011;20346;52.702;16.886;2023-06-26T03:14:09;7.60;;;6.60;;
34072;SDS011;20346;52.702;16.886;2023-06-26T03:16:55;6.90;;;6.20;;
34072;SDS011;20346;52.702;16.886;2023-06-26T03:19:44;6.20;;;5.60;;
34072;SDS011;20346;52.702;16.886;2023-06-26T03:22:30;6.70;;;6.20;;
34072;SDS011;20346;52.702;16.886;2023-06-26T03:25:17;6.30;;;5.80;;
34072;SDS011;20346;52.702;16.886;2023-06-26T03:28:03;7.00;;;6.40;;
34072;SDS011;20346;52.702;16.886;2023-06-26T03:30:49;7.80;;;7.10;;
34072;SDS011;20346;52.702;16.886;2023-06-26T03:33:36;10.40;;;7.20;;
34072;SDS011;20346;52.702;16.886;2023-06-26T03:36:23;7.20;;;6.60;;
34072;SDS011;20346;52.702;16.886;2023-06-26T03:39:09;7.70;;;6.90;;
34072;SDS011;20346;52.702;16.886;2023-06-26T03:41:55;8.00;;;7.20;;
34072;SDS011;20346;52.702;16.886;2023-06-26T03:44:46;7.90;;;6.90;;
34072;SDS011;20346;52.702;16.886;2023-06-26T03:47:32;7.50;;;6.80;;
34072;SDS011;20346;52.702;16.886;2023-06-26T03:50:18;8.50;;;7.60;;
34072;SDS011;20346;52.702;16.886;2023-06-26T03:55:50;7.00;;;6.40;;
34072;SDS011;20346;52.702;16.886;2023-06-26T04:01:23;7.10;;;6.50;;
34072;SDS011;20346;52.702;16.886;2023-06-26T04:04:09;8.00;;;6.90;;
34072;SDS011;20346;52.702;16.886;2023-06-26T04:06:55;8.10;;;7.30;;
34072;SDS011;20346;52.702;16.886;2023-06-26T04:09:42;8.00;;;7.20;;
34072;SDS011;20346;52.702;16.886;2023-06-26T04:12:29;12.60;;;7.20;;
34072;SDS011;20346;52.702;16.886;2023-06-26T04:15:15;8.40;;;7.50;;
34072;SDS011;20346;52.702;16.886;2023-06-26T04:18:01;8.10;;;7.20;;
34072;SDS011;20346;52.702;16.886;2023-06-26T04:21:08;8.70;;;7.40;;
34072;SDS011;20346;52.702;16.886;2023-06-26T04:23:54;8.80;;;7.80;;
34072;SDS011;20346;52.702;16.886;2023-06-26T04:26:41;11.20;;;7.40;;
34072;SDS011;20346;52.702;16.886;2023-06-26T04:29:30;7.70;;;6.90;;
34072;SDS011;20346;52.702;16.886;2023-06-26T04:32:16;11.30;;;7.70;;
34072;SDS011;20346;52.702;16.886;2023-06-26T04:35:03;9.40;;;8.40;;
34072;SDS011;20346;52.702;16.886;2023-06-26T04:37:49;10.00;;;7.10;;
34072;SDS011;20346;52.702;16.886;2023-06-26T04:40:35;8.70;;;7.60;;
34072;SDS011;20346;52.702;16.886;2023-06-26T04:43:23;8.70;;;7.90;;
34072;SDS011;20346;52.702;16.886;2023-06-26T04:46:12;9.50;;;8.20;;
34072;SDS011;20346;52.702;16.886;2023-06-26T04:49:20;9.00;;;8.20;;
34072;SDS011;20346;52.702;16.886;2023-06-26T04:52:13;10.50;;;9.30;;
34072;SDS011;20346;52.702;16.886;2023-06-26T04:55:06;8.90;;;8.20;;
34072;SDS011;20346;52.702;16.886;2023-06-26T04:58:06;9.80;;;8.90;;
34072;SDS011;20346;52.702;16.886;2023-06-26T05:00:59;14.30;;;9.50;;
34072;SDS011;20346;52.702;16.886;2023-06-26T05:03:49;9.50;;;8.70;;
34072;SDS011;20346;52.702;16.886;2023-06-26T05:06:52;10.50;;;9.20;;
34072;SDS011;20346;52.702;16.886;2023-06-26T05:10:15;9.60;;;8.80;;
34072;SDS011;20346;52.702;16.886;2023-06-26T05:13:31;11.70;;;8.60;;
34072;SDS011;20346;52.702;16.886;2023-06-26T05:17:08;10.10;;;7.90;;
34072;SDS011;20346;52.702;16.886;2023-06-26T05:31:13;11.90;;;7.20;;
34072;SDS011;20346;52.702;16.886;2023-06-26T05:46:10;5.50;;;5.00;;
34072;SDS011;20346;52.702;16.886;2023-06-26T05:53:21;5.90;;;5.40;;
34072;SDS011;20346;52.702;16.886;2023-06-26T05:56:48;5.60;;;5.10;;
34072;SDS011;20346;52.702;16.886;2023-06-26T06:00:05;6.50;;;5.40;;
34072;SDS011;20346;52.702;16.886;2023-06-26T06:02:55;8.40;;;5.20;;
34072;SDS011;20346;52.702;16.886;2023-06-26T06:05:41;6.80;;;5.20;;
34072;SDS011;20346;52.702;16.886;2023-06-26T06:08:27;5.30;;;4.80;;
34072;SDS011;20346;52.702;16.886;2023-06-26T06:11:14;5.50;;;5.00;;
34072;SDS011;20346;52.702;16.886;2023-06-26T06:14:01;5.70;;;4.40;;
34072;SDS011;20346;52.702;16.886;2023-06-26T06:16:47;4.90;;;4.50;;
34072;SDS011;20346;52.702;16.886;2023-06-26T06:19:33;5.30;;;4.30;;
34072;SDS011;20346;52.702;16.886;2023-06-26T06:22:19;6.30;;;4.10;;
34072;SDS011;20346;52.702;16.886;2023-06-26T06:25:05;6.20;;;4.60;;
34072;SDS011;20346;52.702;16.886;2023-06-26T06:27:51;5.60;;;5.10;;
34072;SDS011;20346;52.702;16.886;2023-06-26T06:30:38;8.40;;;4.90;;
34072;SDS011;20346;52.702;16.886;2023-06-26T06:33:24;5.20;;;4.80;;
34072;SDS011;20346;52.702;16.886;2023-06-26T06:38:56;6.50;;;4.60;;
34072;SDS011;20346;52.702;16.886;2023-06-26T06:44:28;4.90;;;4.50;;
34072;SDS011;20346;52.702;16.886;2023-06-26T06:47:16;7.30;;;4.50;;
34072;SDS011;20346;52.702;16.886;2023-06-26T06:52:53;5.90;;;4.40;;
34072;SDS011;20346;52.702;16.886;2023-06-26T06:55:39;4.30;;;3.90;;
34072;SDS011;20346;52.702;16.886;2023-06-26T06:58:26;4.30;;;3.90;;
34072;SDS011;20346;52.702;16.886;2023-06-26T07:01:12;4.30;;;4.00;;
34072;SDS011;20346;52.702;16.886;2023-06-26T07:03:59;4.50;;;4.00;;
34072;SDS011;20346;52.702;16.886;2023-06-26T07:06:45;8.20;;;4.30;;
34072;SDS011;20346;52.702;16.886;2023-06-26T07:09:31;4.20;;;3.90;;
34072;SDS011;20346;52.702;16.886;2023-06-26T07:12:17;4.30;;;3.90;;
34072;SDS011;20346;52.702;16.886;2023-06-26T07:15:04;3.30;;;3.00;;
34072;SDS011;20346;52.702;16.886;2023-06-26T07:17:51;3.80;;;3.50;;
34072;SDS011;20346;52.702;16.886;2023-06-26T07:20:37;3.70;;;3.50;;
34072;SDS011;20346;52.702;16.886;2023-06-26T07:23:23;6.10;;;3.40;;
34072;SDS011;20346;52.702;16.886;2023-06-26T07:26:09;4.30;;;3.30;;
34072;SDS011;20346;52.702;16.886;2023-06-26T07:28:56;3.50;;;3.30;;
34072;SDS011;20346;52.702;16.886;2023-06-26T07:31:42;3.50;;;3.30;;
34072;SDS011;20346;52.702;16.886;2023-06-26T07:34:30;3.80;;;3.50;;
34072;SDS011;20346;52.702;16.886;2023-06-26T07:37:16;4.10;;;3.70;;
34072;SDS011;20346;52.702;16.886;2023-06-26T07:40:03;3.80;;;3.40;;
34072;SDS011;20346;52.702;16.886;2023-06-26T07:42:50;3.40;;;3.20;;
34072;SDS011;20346;52.702;16.886;2023-06-26T07:45:36;4.00;;;3.30;;
34072;SDS011;20346;52.702;16.886;2023-06-26T07:48:22;3.90;;;3.60;;
34072;SDS011;20346;52.702;16.886;2023-06-26T07:51:08;5.50;;;4.20;;
34072;SDS011;20346;52.702;16.886;2023-06-26T07:53:54;4.30;;;3.70;;
34072;SDS011;20346;52.702;16.886;2023-06-26T07:56:56;4.90;;;3.90;;
34072;SDS011;20346;52.702;16.886;2023-06-26T07:59:43;4.20;;;3.90;;
34072;SDS011;20346;52.702;16.886;2023-06-26T08:02:29;4.00;;;3.70;;
34072;SDS011;20346;52.702;16.886;2023-06-26T08:05:15;6.30;;;4.00;;
34072;SDS011;20346;52.702;16.886;2023-06-26T08:08:01;4.70;;;4.20;;
34072;SDS011;20346;52.702;16.886;2023-06-26T08:10:48;4.70;;;4.30;;
34072;SDS011;20346;52.702;16.886;2023-06-26T08:13:35;4.50;;;4.10;;
34072;SDS011;20346;52.702;16.886;2023-06-26T08:16:21;5.00;;;4.70;;
34072;SDS011;20346;52.702;16.886;2023-06-26T08:19:07;4.90;;;4.70;;
34072;SDS011;20346;52.702;16.886;2023-06-26T08:21:54;5.70;;;5.40;;
34072;SDS011;20346;52.702;16.886;2023-06-26T08:24:40;5.70;;;5.40;;
34072;SDS011;20346;52.702;16.886;2023-06-26T08:27:27;5.80;;;5.50;;
34072;SDS011;20346;52.702;16.886;2023-06-26T08:30:13;6.50;;;6.10;;
34072;SDS011;20346;52.702;16.886;2023-06-26T08:32:59;6.70;;;6.30;;
34072;SDS011;20346;52.702;16.886;2023-06-26T08:35:46;10.10;;;6.80;;
34072;SDS011;20346;52.702;16.886;2023-06-26T08:38:32;5.10;;;4.70;;
34072;SDS011;20346;52.702;16.886;2023-06-26T08:41:18;5.60;;;5.40;;
34072;SDS011;20346;52.702;16.886;2023-06-26T08:44:05;5.80;;;5.50;;
34072;SDS011;20346;52.702;16.886;2023-06-26T08:46:51;7.00;;;6.60;;
34072;SDS011;20346;52.702;16.886;2023-06-26T08:49:42;6.40;;;5.60;;
34072;SDS011;20346;52.702;16.886;2023-06-26T08:52:52;4.90;;;4.50;;
34072;SDS011;20346;52.702;16.886;2023-06-26T08:55:43;5.20;;;4.80;;
34072;SDS011;20346;52.702;16.886;2023-06-26T08:58:30;4.50;;;4.20;;
34072;SDS011;20346;52.702;16.886;2023-06-26T09:01:16;4.40;;;4.10;;
34072;SDS011;20346;52.702;16.886;2023-06-26T09:04:04;4.10;;;3.80;;
34072;SDS011;20346;52.702;16.886;2023-06-26T09:06:51;3.90;;;3.70;;
34072;SDS011;20346;52.702;16.886;2023-06-26T09:09:37;3.70;;;3.40;;
34072;SDS011;20346;52.702;16.886;2023-06-26T09:12:24;5.90;;;3.60;;
34072;SDS011;20346;52.702;16.886;2023-06-26T09:15:14;3.90;;;3.50;;
34072;SDS011;20346;52.702;16.886;2023-06-26T09:18:01;3.70;;;3.00;;
34072;SDS011;20346;52.702;16.886;2023-06-26T09:20:49;3.90;;;3.50;;
34072;SDS011;20346;52.702;16.886;2023-06-26T09:23:35;3.60;;;3.30;;
34072;SDS011;20346;52.702;16.886;2023-06-26T09:26:22;5.10;;;3.20;;
34072;SDS011;20346;52.702;16.886;2023-06-26T09:29:09;3.60;;;3.30;;
34072;SDS011;20346;52.702;16.886;2023-06-26T09:31:55;3.30;;;3.10;;
34072;SDS011;20346;52.702;16.886;2023-06-26T09:34:42;3.70;;;3.40;;
34072;SDS011;20346;52.702;16.886;2023-06-26T09:37:32;5.10;;;3.30;;
34072;SDS011;20346;52.702;16.886;2023-06-26T09:40:20;5.00;;;3.60;;
34072;SDS011;20346;52.702;16.886;2023-06-26T09:45:52;3.60;;;3.30;;
34072;SDS011;20346;52.702;16.886;2023-06-26T09:48:39;3.50;;;3.30;;
34072;SDS011;20346;52.702;16.886;2023-06-26T09:54:11;6.40;;;3.90;;
34072;SDS011;20346;52.702;16.886;2023-06-26T09:57:11;4.20;;;3.80;;
34072;SDS011;20346;52.702;16.886;2023-06-26T10:00:02;4.00;;;3.70;;
34072;SDS011;20346;52.702;16.886;2023-06-26T10:02:50;4.30;;;3.40;;
34072;SDS011;20346;52.702;16.886;2023-06-26T10:05:37;5.70;;;3.60;;
34072;SDS011;20346;52.702;16.886;2023-06-26T10:08:24;3.80;;;3.50;;
34072;SDS011;20346;52.702;16.886;2023-06-26T10:11:11;3.70;;;3.50;;
34072;SDS011;20346;52.702;16.886;2023-06-26T10:14:03;4.10;;;3.70;;
34072;SDS011;20346;52.702;16.886;2023-06-26T10:16:51;3.90;;;3.70;;
34072;SDS011;20346;52.702;16.886;2023-06-26T10:19:37;7.30;;;3.80;;
34072;SDS011;20346;52.702;16.886;2023-06-26T10:22:25;3.60;;;3.30;;
34072;SDS011;20346;52.702;16.886;2023-06-26T10:25:16;3.90;;;3.50;;
34072;SDS011;20346;52.702;16.886;2023-06-26T10:28:05;3.60;;;3.30;;
34072;SDS011;20346;52.702;16.886;2023-06-26T10:30:53;4.60;;;3.60;;
34072;SDS011;20346;52.702;16.886;2023-06-26T10:33:40;3.60;;;3.30;;
34072;SDS011;20346;52.702;16.886;2023-06-26T10:39:14;3.70;;;3.40;;
34072;SDS011;20346;52.702;16.886;2023-06-26T10:42:08;3.60;;;3.30;;
34072;SDS011;20346;52.702;16.886;2023-06-26T10:44:56;4.00;;;3.70;;
34072;SDS011;20346;52.702;16.886;2023-06-26T10:47:55;4.40;;;3.20;;
34072;SDS011;20346;52.702;16.886;2023-06-26T10:50:44;3.80;;;3.20;;
34072;SDS011;20346;52.702;16.886;2023-06-26T10:53:34;3.20;;;3.00;;
34072;SDS011;20346;52.702;16.886;2023-06-26T10:56:21;3.30;;;2.90;;
34072;SDS011;20346;52.702;16.886;2023-06-26T10:59:14;3.20;;;3.00;;
34072;SDS011;20346;52.702;16.886;2023-06-26T11:02:04;4.20;;;3.60;;
34072;SDS011;20346;52.702;16.886;2023-06-26T11:04:51;3.50;;;3.30;;
34072;SDS011;20346;52.702;16.886;2023-06-26T11:07:42;3.50;;;3.20;;
34072;SDS011;20346;52.702;16.886;2023-06-26T11:13:42;3.30;;;3.00;;
34072;SDS011;20346;52.702;16.886;2023-06-26T11:16:30;3.50;;;3.30;;
34072;SDS011;20346;52.702;16.886;2023-06-26T11:19:18;3.80;;;3.40;;
34072;SDS011;20346;52.702;16.886;2023-06-26T11:22:05;3.60;;;3.30;;
34072;SDS011;20346;52.702;16.886;2023-06-26T11:24:53;3.90;;;3.60;;
34072;SDS011;20346;52.702;16.886;2023-06-26T11:27:40;3.70;;;3.40;;
34072;SDS011;20346;52.702;16.886;2023-06-26T11:30:27;3.50;;;3.20;;
34072;SDS011;20346;52.702;16.886;2023-06-26T11:33:13;4.30;;;3.40;;
34072;SDS011;20346;52.702;16.886;2023-06-26T11:36:07;4.30;;;3.90;;
34072;SDS011;20346;52.702;16.886;2023-06-26T11:41:44;3.90;;;2.90;;
34072;SDS011;20346;52.702;16.886;2023-06-26T11:47:18;3.80;;;3.40;;
34072;SDS011;20346;52.702;16.886;2023-06-26T11:50:06;3.80;;;3.50;;
34072;SDS011;20346;52.702;16.886;2023-06-26T11:52:53;4.20;;;3.90;;
34072;SDS011;20346;52.702;16.886;2023-06-26T11:55:43;6.30;;;5.10;;
34072;SDS011;20346;52.702;16.886;2023-06-26T11:58:29;4.60;;;3.90;;
34072;SDS011;20346;52.702;16.886;2023-06-26T12:01:16;3.90;;;3.30;;
34072;SDS011;20346;52.702;16.886;2023-06-26T12:04:03;4.20;;;3.90;;
34072;SDS011;20346;52.702;16.886;2023-06-26T12:06:51;4.10;;;3.70;;
34072;SDS011;20346;52.702;16.886;2023-06-26T12:09:43;3.90;;;3.60;;
34072;SDS011;20346;52.702;16.886;2023-06-26T12:12:31;3.50;;;3.10;;
34072;SDS011;20346;52.702;16.886;2023-06-26T12:15:19;4.90;;;4.40;;
34072;SDS011;20346;52.702;16.886;2023-06-26T12:18:08;3.90;;;3.60;;
34072;SDS011;20346;52.702;16.886;2023-06-26T12:20:55;3.70;;;3.40;;
34072;SDS011;20346;52.702;16.886;2023-06-26T12:23:41;3.90;;;3.40;;
34072;SDS011;20346;52.702;16.886;2023-06-26T12:26:27;5.90;;;3.50;;
34072;SDS011;20346;52.702;16.886;2023-06-26T12:29:19;6.90;;;3.90;;
34072;SDS011;20346;52.702;16.886;2023-06-26T12:32:14;8.80;;;3.60;;
34072;SDS011;20346;52.702;16.886;2023-06-26T12:35:01;3.80;;;3.20;;
34072;SDS011;20346;52.702;16.886;2023-06-26T12:37:47;5.10;;;3.30;;
34072;SDS011;20346;52.702;16.886;2023-06-26T12:40:33;4.10;;;3.10;;
34072;SDS011;20346;52.702;16.886;2023-06-26T12:43:23;4.00;;;3.70;;
34072;SDS011;20346;52.702;16.886;2023-06-26T12:46:09;4.10;;;3.70;;
34072;SDS011;20346;52.702;16.886;2023-06-26T12:48:56;3.80;;;3.50;;
34072;SDS011;20346;52.702;16.886;2023-06-26T12:51:43;5.20;;;3.10;;
34072;SDS011;20346;52.702;16.886;2023-06-26T12:54:30;5.40;;;3.70;;
34072;SDS011;20346;52.702;16.886;2023-06-26T12:57:16;4.10;;;3.70;;
34072;SDS011;20346;52.702;16.886;2023-06-26T13:00:02;6.40;;;3.70;;
34072;SDS011;20346;52.702;16.886;2023-06-26T13:02:48;3.80;;;3.60;;
34072;SDS011;20346;52.702;16.886;2023-06-26T13:05:35;3.80;;;3.50;;
34072;SDS011;20346;52.702;16.886;2023-06-26T13:08:21;3.80;;;3.50;;
34072;SDS011;20346;52.702;16.886;2023-06-26T13:11:07;3.50;;;3.30;;
34072;SDS011;20346;52.702;16.886;2023-06-26T13:13:53;5.90;;;3.30;;
34072;SDS011;20346;52.702;16.886;2023-06-26T13:16:39;6.30;;;3.40;;
34072;SDS011;20346;52.702;16.886;2023-06-26T13:19:26;4.00;;;3.70;;
34072;SDS011;20346;52.702;16.886;2023-06-26T13:30:30;3.80;;;3.40;;
34072;SDS011;20346;52.702;16.886;2023-06-26T13:33:16;4.00;;;3.60;;
34072;SDS011;20346;52.702;16.886;2023-06-26T13:36:03;3.40;;;3.20;;
34072;SDS011;20346;52.702;16.886;2023-06-26T13:38:50;4.00;;;3.70;;
34072;SDS011;20346;52.702;16.886;2023-06-26T13:41:41;4.50;;;4.80;;
34072;SDS011;20346;52.702;16.886;2023-06-26T13:44:27;6.40;;;3.40;;
34072;SDS011;20346;52.702;16.886;2023-06-26T13:47:13;3.40;;;3.20;;
34072;SDS011;20346;52.702;16.886;2023-06-26T13:50:00;4.00;;;3.70;;
34072;SDS011;20346;52.702;16.886;2023-06-26T13:52:46;3.80;;;3.60;;
34072;SDS011;20346;52.702;16.886;2023-06-26T13:55:33;3.80;;;3.10;;
34072;SDS011;20346;52.702;16.886;2023-06-26T13:58:20;4.90;;;3.50;;
34072;SDS011;20346;52.702;16.886;2023-06-26T14:01:12;8.00;;;3.90;;
34072;SDS011;20346;52.702;16.886;2023-06-26T14:03:58;4.00;;;3.70;;
34072;SDS011;20346;52.702;16.886;2023-06-26T14:06:45;3.60;;;3.30;;
34072;SDS011;20346;52.702;16.886;2023-06-26T14:09:31;3.50;;;3.30;;
34072;SDS011;20346;52.702;16.886;2023-06-26T14:12:17;4.70;;;3.20;;
34072;SDS011;20346;52.702;16.886;2023-06-26T14:15:04;4.50;;;4.10;;
34072;SDS011;20346;52.702;16.886;2023-06-26T14:17:50;3.70;;;3.40;;
34072;SDS011;20346;52.702;16.886;2023-06-26T14:20:37;6.30;;;5.40;;
34072;SDS011;20346;52.702;16.886;2023-06-26T14:23:24;6.10;;;5.50;;
34072;SDS011;20346;52.702;16.886;2023-06-26T14:26:10;8.40;;;7.00;;
34072;SDS011;20346;52.702;16.886;2023-06-26T14:28:57;5.30;;;4.80;;
34072;SDS011;20346;52.702;16.886;2023-06-26T14:31:46;5.50;;;4.70;;
34072;SDS011;20346;52.702;16.886;2023-06-26T14:34:32;4.40;;;3.90;;
34072;SDS011;20346;52.702;16.886;2023-06-26T14:40:06;4.30;;;3.40;;
34072;SDS011;20346;52.702;16.886;2023-06-26T14:42:53;3.50;;;3.20;;
34072;SDS011;20346;52.702;16.886;2023-06-26T14:45:39;3.40;;;3.10;;
34072;SDS011;20346;52.702;16.886;2023-06-26T14:48:25;4.10;;;3.80;;
34072;SDS011;20346;52.702;16.886;2023-06-26T14:51:11;3.90;;;3.30;;
34072;SDS011;20346;52.702;16.886;2023-06-26T14:53:58;4.60;;;3.10;;
34072;SDS011;20346;52.702;16.886;2023-06-26T14:56:45;4.20;;;3.50;;
34072;SDS011;20346;52.702;16.886;2023-06-26T14:59:31;5.30;;;3.20;;
34072;SDS011;20346;52.702;16.886;2023-06-26T15:02:17;5.00;;;3.20;;
34072;SDS011;20346;52.702;16.886;2023-06-26T15:05:03;6.10;;;3.90;;
34072;SDS011;20346;52.702;16.886;2023-06-26T15:10:36;5.40;;;3.30;;
34072;SDS011;20346;52.702;16.886;2023-06-26T15:13:22;5.10;;;3.70;;
34072;SDS011;20346;52.702;16.886;2023-06-26T15:16:08;4.00;;;3.60;;
34072;SDS011;20346;52.702;16.886;2023-06-26T15:18:55;3.90;;;3.60;;
34072;SDS011;20346;52.702;16.886;2023-06-26T15:21:41;3.60;;;3.00;;
34072;SDS011;20346;52.702;16.886;2023-06-26T15:24:27;5.30;;;3.60;;
34072;SDS011;20346;52.702;16.886;2023-06-26T15:27:13;4.10;;;3.80;;
34072;SDS011;20346;52.702;16.886;2023-06-26T15:29:59;3.80;;;3.50;;
34072;SDS011;20346;52.702;16.886;2023-06-26T15:32:46;9.00;;;4.10;;
34072;SDS011;20346;52.702;16.886;2023-06-26T15:35:33;4.30;;;3.90;;
34072;SDS011;20346;52.702;16.886;2023-06-26T15:38:19;3.70;;;3.40;;
34072;SDS011;20346;52.702;16.886;2023-06-26T15:41:05;6.30;;;3.50;;
34072;SDS011;20346;52.702;16.886;2023-06-26T15:43:51;3.70;;;3.40;;
34072;SDS011;20346;52.702;16.886;2023-06-26T15:46:37;3.90;;;3.60;;
34072;SDS011;20346;52.702;16.886;2023-06-26T15:49:23;8.70;;;3.90;;
34072;SDS011;20346;52.702;16.886;2023-06-26T15:52:10;4.00;;;3.60;;
34072;SDS011;20346;52.702;16.886;2023-06-26T16:00:28;4.80;;;4.40;;
34072;SDS011;20346;52.702;16.886;2023-06-26T16:03:14;4.70;;;4.10;;
34072;SDS011;20346;52.702;16.886;2023-06-26T16:06:00;4.90;;;4.10;;
34072;SDS011;20346;52.702;16.886;2023-06-26T16:08:47;4.90;;;4.10;;
34072;SDS011;20346;52.702;16.886;2023-06-26T16:11:34;5.00;;;4.60;;
34072;SDS011;20346;52.702;16.886;2023-06-26T16:14:20;4.50;;;4.20;;
34072;SDS011;20346;52.702;16.886;2023-06-26T16:17:07;7.00;;;4.70;;
34072;SDS011;20346;52.702;16.886;2023-06-26T16:19:54;5.80;;;5.00;;
34072;SDS011;20346;52.702;16.886;2023-06-26T16:22:40;12.20;;;5.70;;
34072;SDS011;20346;52.702;16.886;2023-06-26T16:25:26;6.10;;;5.40;;
34072;SDS011;20346;52.702;16.886;2023-06-26T16:28:12;6.20;;;5.60;;
34072;SDS011;20346;52.702;16.886;2023-06-26T16:30:59;9.10;;;4.90;;
34072;SDS011;20346;52.702;16.886;2023-06-26T16:33:45;5.40;;;5.00;;
34072;SDS011;20346;52.702;16.886;2023-06-26T16:36:31;4.40;;;4.10;;
34072;SDS011;20346;52.702;16.886;2023-06-26T16:39:17;5.00;;;4.60;;
34072;SDS011;20346;52.702;16.886;2023-06-26T16:42:07;6.10;;;4.60;;
34072;SDS011;20346;52.702;16.886;2023-06-26T16:44:53;6.00;;;4.70;;
34072;SDS011;20346;52.702;16.886;2023-06-26T16:47:40;7.80;;;4.60;;
34072;SDS011;20346;52.702;16.886;2023-06-26T16:50:27;7.20;;;5.00;;
34072;SDS011;20346;52.702;16.886;2023-06-26T16:56:00;5.40;;;4.40;;
34072;SDS011;20346;52.702;16.886;2023-06-26T16:58:46;5.50;;;5.00;;
34072;SDS011;20346;52.702;16.886;2023-06-26T17:01:32;5.50;;;5.00;;
34072;SDS011;20346;52.702;16.886;2023-06-26T17:04:18;5.10;;;4.80;;
34072;SDS011;20346;52.702;16.886;2023-06-26T17:07:05;6.00;;;5.40;;
34072;SDS011;20346;52.702;16.886;2023-06-26T17:09:54;6.40;;;4.80;;
34072;SDS011;20346;52.702;16.886;2023-06-26T17:12:40;5.30;;;4.90;;
34072;SDS011;20346;52.702;16.886;2023-06-26T17:15:28;5.50;;;5.10;;
34072;SDS011;20346;52.702;16.886;2023-06-26T17:18:14;6.00;;;5.00;;
34072;SDS011;20346;52.702;16.886;2023-06-26T17:21:00;5.50;;;5.00;;
34072;SDS011;20346;52.702;16.886;2023-06-26T17:23:46;10.70;;;4.70;;
34072;SDS011;20346;52.702;16.886;2023-06-26T17:26:32;10.20;;;5.50;;
34072;SDS011;20346;52.702;16.886;2023-06-26T17:29:20;7.90;;;5.60;;
34072;SDS011;20346;52.702;16.886;2023-06-26T17:32:06;9.80;;;5.30;;
34072;SDS011;20346;52.702;16.886;2023-06-26T17:34:53;7.60;;;5.50;;
34072;SDS011;20346;52.702;16.886;2023-06-26T17:37:39;12.50;;;4.90;;
34072;SDS011;20346;52.702;16.886;2023-06-26T17:40:25;9.40;;;5.50;;
34072;SDS011;20346;52.702;16.886;2023-06-26T17:43:11;5.60;;;5.00;;
34072;SDS011;20346;52.702;16.886;2023-06-26T17:45:58;6.40;;;5.50;;
34072;SDS011;20346;52.702;16.886;2023-06-26T17:48:44;7.70;;;5.10;;
34072;SDS011;20346;52.702;16.886;2023-06-26T17:51:30;9.10;;;5.30;;
34072;SDS011;20346;52.702;16.886;2023-06-26T17:57:03;11.00;;;5.30;;
34072;SDS011;20346;52.702;16.886;2023-06-26T17:59:51;7.80;;;5.30;;
34072;SDS011;20346;52.702;16.886;2023-06-26T18:02:37;7.40;;;5.40;;
34072;SDS011;20346;52.702;16.886;2023-06-26T18:05:26;6.20;;;5.50;;
34072;SDS011;20346;52.702;16.886;2023-06-26T18:16:31;8.80;;;5.20;;